Terminal Aerodrome Forecast
Issued by NWS

Home | Current Version | Previous Version | Text Only | Print | Product List | Glossary On
Versions: 1 2 3 4 5 6 7 8 9 10 11 12 13
000
FTUS45 KTFX 221100
TAFHLN
TAF
KHLN 221122Z 2212/2312 27015KT P6SM SCT040 BKN120
     FM221700 29011KT P6SM VCSH BKN050
     FM230200 26009KT P6SM SCT050=

USA.gov is the U.S. government's official web portal to all federal, state and local government web resources and services.